»·PEaware :: N123AC KVNY-KSNA

N123AC :: KVNY-KSNA

FLIGHT INFORMATION

Flight Status: Arrived
Operator: Privately registered:
United States
More flights under this callsign
Pilot: Mats S. (16098)
Aircraft: CESSNA 172 SKYHAWK
(C172)
More flights by this aircraft type
Origin: KVNY Van Nuys
United States
Destination: KSNA John Wayne-Orange Co
United States
More flights between these airports :: More routes between these airports
Route: +
File this flight plan on PilotEdge
Remarks:
Altitude:
(Current/Filed)
0ft
Speed:
(Current/Filed)
0kts
Departed: 12-Aug-17 01:27 PM
Arrived: 12-Aug-17 02:43 PM
Distance/Time
Traveled:
45nm/1:15
Distance/Time
To Go:
Arrived

Flight Plot

Page will automatically refresh every two minutes.


Map Options




Map Legend


Flown Route
Filed Route
Departure Airport
Arrival Airport
Navaid (VOR, NDB)
Fix

Horizontal Profiles

Position Reports

Time Latitude Longitude Heading Altitude Ground
Speed
12-Aug-17 13:24 34.218710 -118.489502 319 794ft 0kts
12-Aug-17 13:25 34.218710 -118.489502 319 794ft 0kts
12-Aug-17 13:26 34.218710 -118.489502 319 794ft 0kts
12-Aug-17 13:27 34.218710 -118.489502 319 794ft 0kts
12-Aug-17 13:28 34.218908 -118.490004 266 796ft 9kts
12-Aug-17 13:29 34.218295 -118.491196 172 797ft 15kts
12-Aug-17 13:30 34.210769 -118.490136 170 1050ft 53kts
12-Aug-17 13:31 34.202072 -118.488281 170 1421ft 53kts
12-Aug-17 13:32 34.192938 -118.487085 200 1924ft 48kts
12-Aug-17 13:33 34.189808 -118.495481 262 2365ft 45kts
12-Aug-17 13:34 34.194106 -118.503784 267 2690ft 64kts
12-Aug-17 13:35 34.194500 -118.518868 266 3076ft 87kts
12-Aug-17 13:36 34.194789 -118.536618 266 3534ft 92kts
12-Aug-17 13:37 34.195124 -118.554687 266 3999ft 92kts
12-Aug-17 13:38 34.196059 -118.573132 275 4470ft 93kts
12-Aug-17 13:39 34.201534 -118.589693 316 4915ft 98kts
12-Aug-17 13:41 34.215581 -118.595368 355 5351ft 99kts
12-Aug-17 13:42 34.232562 -118.593341 23 5432ft 107kts
12-Aug-17 13:43 34.248747 -118.582175 30 5432ft 108kts
12-Aug-17 13:44 34.263230 -118.590007 280 5424ft 103kts
12-Aug-17 13:45 34.256695 -118.607363 218 5420ft 94kts
12-Aug-17 13:46 34.241786 -118.605199 161 5417ft 93kts
12-Aug-17 13:47 34.228457 -118.596424 159 5410ft 94kts
12-Aug-17 13:48 34.213828 -118.589516 161 5411ft 95kts
12-Aug-17 13:49 34.197970 -118.582028 161 5411ft 97kts
12-Aug-17 13:50 34.180936 -118.573864 161 5408ft 98kts
12-Aug-17 13:51 34.164015 -118.564020 136 5400ft 102kts
12-Aug-17 13:52 34.149324 -118.547988 142 5439ft 99kts
12-Aug-17 13:53 34.134633 -118.531610 139 5448ft 102kts
12-Aug-17 13:54 34.120027 -118.515010 154 5444ft 101kts
12-Aug-17 13:55 34.103012 -118.502079 152 5441ft 103kts
12-Aug-17 13:56 34.087461 -118.490177 152 5507ft 101kts
12-Aug-17 13:57 34.073056 -118.479183 152 5509ft 104kts
12-Aug-17 13:58 34.058504 -118.468134 152 5507ft 107kts
12-Aug-17 13:59 34.042934 -118.462078 204 5495ft 88kts
12-Aug-17 14:00 34.027462 -118.469332 209 5502ft 78kts
12-Aug-17 14:01 34.012822 -118.468544 158 5504ft 81kts
12-Aug-17 14:02 33.998944 -118.459727 158 5523ft 102kts
12-Aug-17 14:03 33.981673 -118.450299 166 5509ft 114kts
12-Aug-17 14:04 33.960883 -118.442118 176 5505ft 115kts
12-Aug-17 14:05 33.937480 -118.437339 169 5505ft 116kts
12-Aug-17 14:06 33.917050 -118.426093 151 5505ft 120kts
12-Aug-17 14:07 33.903225 -118.408047 128 5499ft 125kts
12-Aug-17 14:08 33.891174 -118.389731 140 5502ft 123kts
12-Aug-17 14:09 33.878258 -118.373775 138 5500ft 124kts
12-Aug-17 14:10 33.863705 -118.355845 138 5499ft 125kts
12-Aug-17 14:10 33.850267 -118.342777 150 5499ft 123kts
12-Aug-17 14:12 33.827695 -118.332352 165 5496ft 121kts
12-Aug-17 14:12 33.809612 -118.324649 163 5495ft 123kts
12-Aug-17 14:14 33.788029 -118.306250 146 5494ft 126kts
12-Aug-17 14:14 33.771927 -118.291226 147 5493ft 126kts
12-Aug-17 14:15 33.751338 -118.271639 122 5484ft 129kts
12-Aug-17 14:16 33.744159 -118.240172 104 5492ft 130kts
12-Aug-17 14:17 33.738489 -118.209204 105 5484ft 116kts
12-Aug-17 14:18 33.733171 -118.180114 106 5495ft 121kts
12-Aug-17 14:19 33.728811 -118.155853 108 5477ft 88kts
12-Aug-17 14:20 33.725353 -118.137505 114 5475ft 67kts
12-Aug-17 14:21 33.723465 -118.121677 146 5616ft 73kts
12-Aug-17 14:22 33.716422 -118.104500 115 5346ft 106kts
12-Aug-17 14:23 33.708848 -118.085771 133 4631ft 102kts
12-Aug-17 14:24 33.696075 -118.071073 142 3869ft 100kts
12-Aug-17 14:25 33.688161 -118.055945 110 3216ft 105kts
12-Aug-17 14:26 33.685254 -118.040409 108 2827ft 92kts
12-Aug-17 14:27 33.685005 -118.026100 63 2524ft 87kts
12-Aug-17 14:28 33.691359 -118.014321 57 2314ft 84kts
12-Aug-17 14:29 33.697996 -118.003359 57 2231ft 73kts
12-Aug-17 14:30 33.703741 -117.994070 55 2199ft 62kts
12-Aug-17 14:31 33.708489 -117.986520 56 2205ft 65kts
12-Aug-17 14:32 33.713577 -117.978305 57 2251ft 73kts
12-Aug-17 14:33 33.719178 -117.969190 57 2286ft 79kts
12-Aug-17 14:34 33.725659 -117.958594 57 2310ft 85kts
12-Aug-17 14:35 33.727349 -117.945754 103 2116ft 93kts
12-Aug-17 14:36 33.722829 -117.932677 128 1710ft 100kts
12-Aug-17 14:37 33.714893 -117.920766 135 1345ft 92kts
12-Aug-17 14:38 33.707709 -117.909932 135 1237ft 76kts
12-Aug-17 14:39 33.701304 -117.899314 132 1256ft 83kts
12-Aug-17 14:40 33.696661 -117.888089 100 1236ft 72kts
12-Aug-17 14:41 33.696970 -117.875816 82 1244ft 68kts
12-Aug-17 14:42 33.699910 -117.863909 81 1161ft 77kts
12-Aug-17 14:43 33.695598 -117.857173 194 848ft 75kts
12-Aug-17 14:44 33.685463 -117.862503 205 492ft 80kts
12-Aug-17 14:45 33.675458 -117.868906 207 67ft 54kts
12-Aug-17 14:46 33.672197 -117.871948 242 60ft 0kts
12-Aug-17 14:47 33.672017 -117.872400 249 60ft 7kts
12-Aug-17 14:48 33.671937 -117.872578 236 60ft 0kts
12-Aug-17 14:49 33.671937 -117.872578 236 60ft 0kts
12-Aug-17 14:50 33.671937 -117.872578 236 60ft 0kts
12-Aug-17 14:51 33.671929 -117.872593 232 60ft 3kts
12-Aug-17 14:52 33.671435 -117.873687 264 60ft 0kts

Navigation Log

Ident Type
1. KVNY Airport
2. KSNA Airport